createdAt,value
2019-05-28T00:00:02.266Z,14.30
2019-05-28T00:02:23.187Z,14.30
2019-05-28T00:04:50.346Z,14.40
2019-05-28T00:07:17.850Z,14.30
2019-05-28T00:09:44.695Z,14.40
2019-05-28T00:12:24.604Z,14.40
2019-05-28T00:14:52.162Z,14.40
2019-05-28T00:17:19.278Z,14.40
2019-05-28T00:19:46.774Z,14.50
2019-05-28T00:22:14.214Z,14.50
2019-05-28T00:24:41.554Z,14.40
2019-05-28T00:27:08.406Z,14.40
2019-05-28T00:29:35.483Z,14.40
2019-05-28T00:32:02.711Z,14.40
2019-05-28T00:34:29.914Z,14.40
2019-05-28T00:36:56.811Z,14.40
2019-05-28T00:39:23.901Z,14.40
2019-05-28T00:41:51.712Z,14.40
2019-05-28T00:44:19.643Z,14.40
2019-05-28T00:46:46.676Z,14.40
2019-05-28T00:49:14.787Z,14.20
2019-05-28T00:51:41.249Z,14.20
2019-05-28T00:54:08.918Z,14.20
2019-05-28T00:56:36.849Z,14.20
2019-05-28T00:59:08.983Z,14.20
2019-05-28T01:01:36.324Z,14.20
2019-05-28T01:04:03.740Z,14.10
2019-05-28T01:06:31.110Z,14.00
2019-05-28T01:08:58.213Z,14.00
2019-05-28T01:11:27.001Z,14.00
2019-05-28T01:13:54.713Z,14.10
2019-05-28T01:16:22.043Z,14.10
2019-05-28T01:18:51.724Z,14.10
2019-05-28T01:21:19.275Z,14.00
2019-05-28T01:23:46.419Z,14.00
2019-05-28T01:26:13.771Z,14.00
2019-05-28T01:28:41.252Z,14.10
2019-05-28T01:31:08.541Z,14.00
2019-05-28T01:33:35.748Z,14.10
2019-05-28T01:36:02.980Z,14.00
2019-05-28T01:38:30.317Z,14.00
2019-05-28T01:40:57.710Z,13.90
2019-05-28T01:43:24.732Z,14.00
2019-05-28T01:45:51.937Z,14.00
2019-05-28T01:48:19.380Z,14.00
2019-05-28T01:50:47.770Z,14.00
2019-05-28T01:53:15.104Z,14.00
2019-05-28T01:55:42.404Z,14.00
2019-05-28T01:58:10.074Z,14.00
2019-05-28T02:00:37.005Z,14.00
2019-05-28T02:03:04.241Z,14.00
2019-05-28T02:05:31.577Z,14.00
2019-05-28T02:08:01.885Z,14.00
2019-05-28T02:10:29.156Z,14.10
2019-05-28T02:12:56.967Z,14.10
2019-05-28T02:15:24.491Z,14.10
2019-05-28T02:17:51.660Z,14.10
2019-05-28T02:20:19.570Z,14.10
2019-05-28T02:22:46.962Z,14.10
2019-05-28T02:25:14.689Z,14.20
2019-05-28T02:27:41.712Z,14.20
2019-05-28T02:30:10.101Z,14.20
2019-05-28T02:32:37.122Z,14.10
2019-05-28T02:35:06.802Z,14.10
2019-05-28T02:37:33.918Z,14.10
2019-05-28T02:40:01.458Z,14.10
2019-05-28T02:42:30.272Z,14.10
2019-05-28T02:44:57.474Z,14.10
2019-05-28T02:47:24.615Z,14.00
2019-05-28T02:49:51.649Z,13.90
2019-05-28T02:52:19.523Z,13.80
2019-05-28T02:54:59.369Z,13.90
2019-05-28T02:57:27.947Z,13.90
2019-05-28T02:59:58.007Z,13.90
2019-05-28T03:02:28.523Z,14.00
2019-05-28T03:04:57.295Z,14.00
2019-05-28T03:07:26.488Z,14.00
2019-05-28T03:09:56.690Z,13.90
2019-05-28T03:12:24.084Z,14.00
2019-05-28T03:14:51.226Z,13.90
2019-05-28T03:17:22.121Z,13.90
2019-05-28T03:19:50.072Z,14.00
2019-05-28T03:22:18.909Z,14.00
2019-05-28T03:24:49.084Z,14.00
2019-05-28T03:27:16.372Z,14.00
2019-05-28T03:29:43.565Z,14.10
2019-05-28T03:32:10.707Z,14.10
2019-05-28T03:34:37.586Z,14.10
2019-05-28T03:37:05.421Z,14.10
2019-05-28T03:39:34.935Z,14.10
2019-05-28T03:42:02.426Z,14.20
2019-05-28T03:44:30.146Z,14.20
2019-05-28T03:46:57.554Z,14.20
2019-05-28T03:49:24.794Z,14.20
2019-05-28T03:51:52.318Z,14.30
2019-05-28T03:54:19.624Z,14.30
2019-05-28T03:56:46.908Z,14.30
2019-05-28T04:01:41.499Z,14.40
2019-05-28T04:04:08.717Z,14.40
2019-05-28T04:06:35.823Z,14.40
2019-05-28T04:09:05.936Z,14.50
2019-05-28T04:11:44.289Z,14.40
2019-05-28T04:14:02.767Z,14.40
2019-05-28T04:16:32.728Z,14.40
2019-05-28T04:19:00.560Z,14.40
2019-05-28T04:21:27.822Z,14.40
2019-05-28T04:23:54.738Z,14.40
2019-05-28T04:26:21.966Z,14.40
2019-05-28T04:28:49.596Z,14.40
2019-05-28T04:31:16.678Z,14.40
2019-05-28T04:33:43.852Z,14.40
2019-05-28T04:36:11.291Z,14.30
2019-05-28T04:38:39.427Z,14.30
2019-05-28T04:41:07.315Z,14.20
2019-05-28T04:43:34.958Z,14.20
2019-05-28T04:46:02.109Z,14.20
2019-05-28T04:48:47.375Z,14.20
2019-05-28T04:51:14.695Z,14.20
2019-05-28T04:53:41.938Z,14.20
2019-05-28T04:56:09.252Z,14.20
2019-05-28T04:58:36.464Z,14.30
2019-05-28T05:01:03.810Z,14.30
2019-05-28T05:03:31.231Z,14.30
2019-05-28T05:05:58.639Z,14.40
2019-05-28T05:08:25.548Z,14.40
2019-05-28T05:10:52.957Z,14.40
2019-05-28T05:13:20.151Z,14.50
2019-05-28T05:15:47.431Z,14.60
2019-05-28T05:18:15.075Z,14.60
2019-05-28T05:20:42.346Z,14.60
2019-05-28T05:23:10.571Z,14.60
2019-05-28T05:25:37.789Z,14.60
2019-05-28T05:28:04.813Z,14.50
2019-05-28T05:30:32.215Z,14.50
2019-05-28T05:33:18.698Z,14.50
2019-05-28T05:35:28.630Z,14.40
2019-05-28T05:37:55.998Z,14.30
2019-05-28T05:40:23.884Z,14.40
2019-05-28T05:42:51.428Z,14.40
2019-05-28T05:45:19.073Z,14.40
2019-05-28T05:47:46.427Z,14.40
2019-05-28T05:50:14.140Z,14.50
2019-05-28T05:52:41.314Z,14.50
2019-05-28T05:55:09.731Z,14.60
2019-05-28T05:57:36.588Z,14.60
2019-05-28T06:00:04.548Z,14.70
2019-05-28T06:02:31.986Z,14.70
2019-05-28T06:04:58.865Z,14.80
2019-05-28T06:07:26.112Z,14.80
2019-05-28T06:09:52.930Z,14.90
2019-05-28T06:12:20.434Z,15.10
2019-05-28T06:14:48.204Z,15.30
2019-05-28T06:17:15.478Z,15.40
2019-05-28T06:19:42.537Z,15.50
2019-05-28T06:22:10.262Z,15.70
2019-05-28T06:24:37.142Z,15.80
2019-05-28T06:27:05.044Z,15.90
2019-05-28T06:29:32.232Z,16.10
2019-05-28T06:31:59.308Z,16.10
2019-05-28T06:34:26.487Z,16.20
2019-05-28T06:36:54.669Z,16.10
2019-05-28T06:39:22.920Z,16.00
2019-05-28T06:41:50.367Z,15.90
2019-05-28T06:44:17.481Z,15.90
2019-05-28T06:46:44.541Z,15.80
2019-05-28T06:49:13.658Z,15.80
2019-05-28T06:51:41.152Z,15.70
2019-05-28T06:54:11.729Z,15.60
2019-05-28T06:56:41.013Z,15.50
2019-05-28T06:59:08.275Z,15.40
2019-05-28T07:01:37.088Z,15.40
2019-05-28T07:04:13.328Z,15.30
2019-05-28T07:06:34.440Z,15.00
2019-05-28T07:09:01.463Z,14.90
2019-05-28T07:11:30.367Z,14.80
2019-05-28T07:13:58.347Z,14.80
2019-05-28T07:16:25.556Z,14.60
2019-05-28T07:18:52.503Z,14.40
2019-05-28T07:21:19.595Z,14.30
2019-05-28T07:23:46.767Z,14.20
2019-05-28T07:26:13.597Z,14.20
2019-05-28T07:28:40.764Z,14.30
2019-05-28T07:31:08.006Z,14.40
2019-05-28T07:33:35.885Z,14.60
2019-05-28T07:36:03.385Z,14.80
2019-05-28T07:38:32.784Z,15.10
2019-05-28T07:41:03.280Z,15.40
2019-05-28T07:43:30.876Z,15.50
2019-05-28T07:45:58.133Z,15.60
2019-05-28T07:48:25.412Z,15.60
2019-05-28T07:50:52.607Z,15.70
2019-05-28T07:53:20.046Z,15.80
2019-05-28T07:55:47.464Z,15.90
2019-05-28T07:58:15.143Z,16.00
2019-05-28T08:00:43.526Z,16.00
2019-05-28T08:03:10.939Z,16.10
2019-05-28T08:05:38.113Z,16.10
2019-05-28T08:08:06.932Z,16.10
2019-05-28T08:10:33.965Z,16.30
2019-05-28T08:13:01.296Z,16.50
2019-05-28T08:15:28.967Z,16.50
2019-05-28T08:17:56.275Z,16.80
2019-05-28T08:20:23.697Z,16.90
2019-05-28T08:22:50.933Z,17.10
2019-05-28T08:25:33.373Z,17.20
2019-05-28T08:27:47.288Z,17.20
2019-05-28T08:30:15.598Z,17.50
2019-05-28T08:32:42.474Z,17.90
2019-05-28T08:35:10.231Z,18.40
2019-05-28T08:37:38.366Z,18.90
2019-05-28T08:40:06.320Z,19.30
2019-05-28T08:42:33.262Z,19.70
2019-05-28T08:45:00.634Z,19.90
2019-05-28T08:47:28.057Z,20.10
2019-05-28T08:49:54.872Z,20.20
2019-05-28T08:52:22.032Z,20.10
2019-05-28T08:54:51.268Z,20.10
2019-05-28T08:57:19.058Z,20.40
2019-05-28T08:59:46.540Z,20.50
2019-05-28T09:02:27.419Z,20.70
2019-05-28T09:04:43.000Z,20.80
2019-05-28T09:07:10.035Z,20.80
2019-05-28T09:09:37.418Z,20.50
2019-05-28T09:12:05.654Z,20.60
2019-05-28T09:14:54.379Z,20.70
2019-05-28T09:17:02.677Z,20.90
2019-05-28T09:19:30.905Z,21.10
2019-05-28T09:21:58.143Z,21.20
2019-05-28T09:24:27.866Z,21.20
2019-05-28T09:26:54.601Z,21.40
2019-05-28T09:29:21.790Z,21.60
2019-05-28T09:31:49.071Z,21.60
2019-05-28T09:34:16.357Z,21.80
2019-05-28T09:36:43.516Z,22.20
2019-05-28T09:39:11.679Z,22.60
2019-05-28T09:41:39.002Z,23.20
2019-05-28T09:44:06.440Z,23.70
2019-05-28T09:46:34.036Z,23.90
2019-05-28T09:49:01.033Z,24.10
2019-05-28T09:51:28.377Z,24.10
2019-05-28T09:53:55.316Z,24.20
2019-05-28T09:56:22.764Z,24.10
2019-05-28T09:58:49.996Z,23.70
2019-05-28T10:01:17.476Z,23.70
2019-05-28T10:03:44.681Z,23.60
2019-05-28T10:06:16.864Z,24.10
2019-05-28T10:08:40.618Z,24.40
2019-05-28T10:11:07.985Z,24.80
2019-05-28T10:13:40.560Z,25.10
2019-05-28T10:16:05.408Z,26.00
2019-05-28T10:18:33.091Z,26.80
2019-05-28T10:21:16.917Z,27.70
2019-05-28T10:23:29.750Z,28.60
2019-05-28T10:25:57.193Z,29.50
2019-05-28T10:28:24.381Z,30.50
2019-05-28T10:30:51.918Z,30.80
2019-05-28T10:33:20.149Z,30.60
2019-05-28T10:35:47.020Z,29.80
2019-05-28T10:38:16.975Z,29.10
2019-05-28T10:40:44.001Z,28.50
2019-05-28T10:43:11.172Z,28.20
2019-05-28T10:45:38.380Z,28.20
2019-05-28T10:48:06.138Z,28.40
2019-05-28T10:50:33.322Z,28.20
2019-05-28T10:53:00.764Z,28.10
2019-05-28T10:55:27.878Z,28.40
2019-05-28T10:57:56.017Z,28.60
2019-05-28T11:00:25.063Z,29.00
2019-05-28T11:02:52.280Z,29.20
2019-05-28T11:05:20.054Z,30.50
2019-05-28T11:07:47.326Z,31.50
2019-05-28T11:10:23.828Z,32.20
2019-05-28T11:12:44.922Z,33.40
2019-05-28T11:15:13.495Z,34.10
2019-05-28T11:17:40.720Z,34.20
2019-05-28T11:20:09.164Z,34.80
2019-05-28T11:22:36.677Z,34.60
2019-05-28T11:25:06.483Z,32.90
2019-05-28T11:27:33.655Z,31.30
2019-05-28T11:30:00.484Z,29.70
2019-05-28T11:32:27.296Z,27.50
2019-05-28T11:34:55.917Z,25.50
2019-05-28T11:37:24.198Z,23.50
2019-05-28T11:39:51.381Z,22.00
2019-05-28T11:42:21.109Z,20.80
2019-05-28T11:44:48.102Z,19.90
2019-05-28T11:47:15.071Z,19.20
2019-05-28T11:49:42.400Z,18.70
2019-05-28T11:52:10.361Z,18.30
2019-05-28T11:54:37.447Z,18.00
2019-05-28T11:57:05.353Z,17.90
2019-05-28T11:59:32.915Z,19.10
2019-05-28T12:02:04.994Z,20.80
2019-05-28T12:04:31.447Z,22.60
2019-05-28T12:06:59.068Z,24.30
2019-05-28T12:09:26.101Z,25.50
2019-05-28T12:11:53.576Z,27.10
2019-05-28T12:14:21.019Z,28.50
2019-05-28T12:16:48.093Z,29.60
2019-05-28T12:19:15.230Z,30.80
2019-05-28T12:21:43.490Z,31.90
2019-05-28T12:24:11.635Z,33.00
2019-05-28T12:26:38.490Z,33.50
2019-05-28T12:29:05.376Z,33.60
2019-05-28T12:31:32.700Z,33.50
2019-05-28T12:33:59.916Z,33.70
2019-05-28T12:36:27.203Z,34.20
2019-05-28T12:38:54.389Z,34.30
2019-05-28T12:41:21.848Z,34.50
2019-05-28T12:43:49.497Z,34.70
2019-05-28T12:46:17.253Z,34.40
2019-05-28T12:48:44.416Z,34.40
2019-05-28T12:51:11.915Z,34.10
2019-05-28T12:53:52.279Z,33.80
2019-05-28T12:56:19.704Z,33.60
2019-05-28T12:58:46.881Z,33.00
2019-05-28T13:01:14.092Z,32.10
2019-05-28T13:03:41.598Z,31.50
2019-05-28T13:06:09.490Z,30.90
2019-05-28T13:08:38.415Z,29.90
2019-05-28T13:11:05.285Z,29.00
2019-05-28T13:13:32.888Z,28.40
2019-05-28T13:16:00.552Z,28.80
2019-05-28T13:18:28.460Z,29.40
2019-05-28T13:20:55.739Z,29.60
2019-05-28T13:23:22.910Z,29.40
2019-05-28T13:25:49.747Z,28.80
2019-05-28T13:28:16.957Z,28.40
2019-05-28T13:30:44.458Z,27.90
2019-05-28T13:33:11.464Z,27.70
2019-05-28T13:35:38.749Z,28.00
2019-05-28T13:38:23.469Z,28.10
2019-05-28T13:40:35.268Z,27.80
2019-05-28T13:43:02.572Z,27.30
2019-05-28T13:45:29.926Z,26.90
2019-05-28T13:47:57.473Z,26.40
2019-05-28T13:50:24.959Z,26.10
2019-05-28T13:52:53.013Z,26.00
2019-05-28T13:55:20.725Z,25.80
2019-05-28T13:57:48.137Z,25.60
2019-05-28T14:00:16.896Z,25.20
2019-05-28T14:02:46.305Z,24.20
2019-05-28T14:05:14.646Z,23.10
2019-05-28T14:07:42.191Z,22.40
2019-05-28T14:10:11.681Z,21.60
2019-05-28T14:12:42.443Z,21.10
2019-05-28T14:15:12.149Z,21.80
2019-05-28T14:17:40.208Z,22.90
2019-05-28T14:20:09.681Z,23.90
2019-05-28T14:22:37.653Z,24.60
2019-05-28T14:25:05.125Z,25.20
2019-05-28T14:27:32.160Z,25.50
2019-05-28T14:29:59.617Z,26.20
2019-05-28T14:32:27.039Z,26.70
2019-05-28T14:34:54.596Z,27.30
2019-05-28T14:37:22.021Z,27.30
2019-05-28T14:39:49.021Z,27.30
2019-05-28T14:42:17.583Z,27.70
2019-05-28T14:44:46.082Z,28.30
2019-05-28T14:47:13.352Z,28.40
2019-05-28T14:49:41.312Z,28.50
2019-05-28T14:52:08.832Z,28.10
2019-05-28T14:54:36.237Z,27.90
2019-05-28T14:57:04.040Z,27.50
2019-05-28T14:59:31.681Z,27.20
2019-05-28T15:01:59.288Z,26.40
2019-05-28T15:04:26.606Z,25.50
2019-05-28T15:06:57.085Z,25.10
2019-05-28T15:09:22.713Z,24.80
2019-05-28T15:11:50.471Z,24.40
2019-05-28T15:14:17.966Z,24.10
2019-05-28T15:16:45.186Z,23.60
2019-05-28T15:19:12.138Z,23.10
2019-05-28T15:21:39.284Z,22.80
2019-05-28T15:24:06.497Z,22.60
2019-05-28T15:26:33.398Z,22.80
2019-05-28T15:29:00.395Z,23.40
2019-05-28T15:31:27.941Z,24.10
2019-05-28T15:33:54.978Z,25.00
2019-05-28T15:36:22.000Z,26.00
2019-05-28T15:38:49.079Z,26.70
2019-05-28T15:41:17.050Z,26.90
2019-05-28T15:43:44.510Z,27.00
2019-05-28T15:46:12.157Z,27.50
2019-05-28T15:48:40.429Z,27.80
2019-05-28T15:51:08.065Z,28.20
2019-05-28T15:53:35.492Z,28.50
2019-05-28T15:56:02.829Z,28.70
2019-05-28T15:58:30.334Z,29.10
2019-05-28T16:00:57.879Z,29.60
2019-05-28T16:03:24.990Z,29.40
2019-05-28T16:05:52.342Z,28.60
2019-05-28T16:08:19.508Z,28.20
2019-05-28T16:10:49.469Z,27.60
2019-05-28T16:13:17.611Z,26.90
2019-05-28T16:15:45.264Z,26.10
2019-05-28T16:18:12.672Z,25.70
2019-05-28T16:20:39.848Z,25.40
2019-05-28T16:23:07.177Z,25.10
2019-05-28T16:25:34.464Z,24.80
2019-05-28T16:28:01.513Z,24.40
2019-05-28T16:30:28.758Z,24.50
2019-05-28T16:32:57.669Z,25.10
2019-05-28T16:35:25.105Z,25.50
2019-05-28T16:37:52.694Z,25.40
2019-05-28T16:40:20.340Z,25.10
2019-05-28T16:42:47.812Z,24.90
2019-05-28T16:45:16.873Z,24.40
2019-05-28T16:47:44.150Z,24.20
2019-05-28T16:50:13.499Z,24.00
2019-05-28T16:52:42.462Z,24.10
2019-05-28T16:55:10.399Z,24.30
2019-05-28T16:57:38.206Z,24.20
2019-05-28T17:00:07.249Z,24.10
2019-05-28T17:02:35.134Z,23.60
2019-05-28T17:05:03.209Z,23.00
2019-05-28T17:07:30.848Z,22.60
2019-05-28T17:09:58.383Z,22.30
2019-05-28T17:12:26.132Z,22.00
2019-05-28T17:14:53.432Z,21.70
2019-05-28T17:17:20.460Z,21.50
2019-05-28T17:19:47.690Z,21.40
2019-05-28T17:22:15.040Z,21.20
2019-05-28T17:24:44.429Z,21.10
2019-05-28T17:27:13.962Z,20.90
2019-05-28T17:29:41.323Z,20.90
2019-05-28T17:32:08.701Z,21.00
2019-05-28T17:34:35.989Z,21.00
2019-05-28T17:37:03.330Z,21.20
2019-05-28T17:39:31.491Z,21.20
2019-05-28T17:41:58.952Z,21.20
2019-05-28T17:44:25.811Z,21.40
2019-05-28T17:46:53.369Z,21.60
2019-05-28T17:49:20.343Z,21.60
2019-05-28T17:51:47.704Z,21.70
2019-05-28T17:54:14.997Z,21.70
2019-05-28T17:56:42.378Z,21.70
2019-05-28T17:59:09.840Z,21.60
2019-05-28T18:01:37.432Z,21.30
2019-05-28T18:04:04.481Z,21.20
2019-05-28T18:06:31.796Z,21.30
2019-05-28T18:08:58.953Z,21.30
2019-05-28T18:11:26.004Z,21.20
2019-05-28T18:13:53.712Z,21.20
2019-05-28T18:16:21.612Z,21.20
2019-05-28T18:18:50.089Z,21.00
2019-05-28T18:21:17.480Z,20.80
2019-05-28T18:23:44.521Z,20.50
2019-05-28T18:26:11.969Z,20.10
2019-05-28T18:28:39.194Z,19.70
2019-05-28T18:31:06.317Z,19.50
2019-05-28T18:33:33.470Z,19.30
2019-05-28T18:36:00.349Z,19.10
2019-05-28T18:38:28.193Z,18.90
2019-05-28T18:40:55.501Z,18.80
2019-05-28T18:43:22.894Z,18.80
2019-05-28T18:45:50.497Z,18.80
2019-05-28T18:48:17.456Z,18.60
2019-05-28T18:50:45.301Z,18.50
2019-05-28T18:53:12.233Z,18.40
2019-05-28T18:55:39.686Z,18.10
2019-05-28T18:58:07.273Z,17.90
2019-05-28T19:00:36.146Z,17.70
2019-05-28T19:03:03.788Z,17.40
2019-05-28T19:05:30.857Z,17.20
2019-05-28T19:07:58.375Z,17.10
2019-05-28T19:10:25.212Z,17.00
2019-05-28T19:12:52.580Z,16.80
2019-05-28T19:15:20.206Z,16.50
2019-05-28T19:17:47.689Z,16.40
2019-05-28T19:20:16.890Z,16.40
2019-05-28T19:22:44.446Z,16.40
2019-05-28T19:25:13.198Z,16.30
2019-05-28T19:27:40.563Z,16.20
2019-05-28T19:30:10.784Z,16.20
2019-05-28T19:32:42.713Z,16.30
2019-05-28T19:35:10.433Z,16.20
2019-05-28T19:37:38.707Z,16.30
2019-05-28T19:40:06.993Z,16.30
2019-05-28T19:42:35.585Z,16.40
2019-05-28T19:45:03.518Z,16.40
2019-05-28T19:47:32.474Z,16.50
2019-05-28T19:50:00.065Z,16.60
2019-05-28T19:52:27.247Z,16.60
2019-05-28T19:54:54.567Z,16.60
2019-05-28T19:57:21.963Z,16.60
2019-05-28T19:59:49.150Z,16.60
2019-05-28T20:02:16.712Z,16.60
2019-05-28T20:04:43.561Z,16.60
2019-05-28T20:07:11.708Z,16.50
2019-05-28T20:09:38.823Z,16.50
2019-05-28T20:12:12.597Z,16.40
2019-05-28T20:14:35.315Z,16.30
2019-05-28T20:17:02.191Z,16.20
2019-05-28T20:19:29.960Z,16.10
2019-05-28T20:21:57.529Z,16.00
2019-05-28T20:24:25.895Z,15.90
2019-05-28T20:26:53.911Z,15.80
2019-05-28T20:29:21.887Z,15.80
2019-05-28T20:31:48.915Z,15.70
2019-05-28T20:34:16.368Z,15.60
2019-05-28T20:36:44.078Z,15.50
2019-05-28T20:39:11.778Z,15.40
2019-05-28T20:41:39.092Z,15.30
2019-05-28T20:44:06.464Z,15.20
2019-05-28T20:46:34.481Z,15.20
2019-05-28T20:49:02.611Z,15.10
2019-05-28T20:51:29.544Z,15.00
2019-05-28T20:53:57.763Z,15.00
2019-05-28T20:56:24.984Z,14.90
2019-05-28T20:58:52.210Z,14.90
2019-05-28T21:01:19.451Z,14.80
2019-05-28T21:03:47.830Z,14.70
2019-05-28T21:06:15.097Z,14.70
2019-05-28T21:08:42.247Z,14.60
2019-05-28T21:11:09.471Z,14.50
2019-05-28T21:13:36.567Z,14.40
2019-05-28T21:16:05.076Z,14.40
2019-05-28T21:18:32.755Z,14.30
2019-05-28T21:20:59.925Z,14.30
2019-05-28T21:23:27.072Z,14.30
2019-05-28T21:25:54.331Z,14.30
2019-05-28T21:28:21.851Z,14.30
2019-05-28T21:30:50.453Z,14.40
2019-05-28T21:33:17.799Z,14.30
2019-05-28T21:35:45.547Z,14.30
2019-05-28T21:38:13.915Z,14.30
2019-05-28T21:40:41.463Z,14.30
2019-05-28T21:43:09.895Z,14.20
2019-05-28T21:45:37.758Z,14.10
2019-05-28T21:48:05.342Z,14.10
2019-05-28T21:50:32.329Z,14.00
2019-05-28T21:53:01.039Z,14.00
2019-05-28T21:55:28.307Z,14.00
2019-05-28T21:57:55.865Z,13.90
2019-05-28T22:00:34.639Z,13.80
2019-05-28T22:03:03.378Z,13.70
2019-05-28T22:05:30.650Z,13.60
2019-05-28T22:07:57.588Z,13.60
2019-05-28T22:10:24.809Z,13.60
2019-05-28T22:12:52.074Z,13.60
2019-05-28T22:15:19.387Z,13.60
2019-05-28T22:17:47.635Z,13.60
2019-05-28T22:20:15.343Z,13.60
2019-05-28T22:22:42.960Z,13.60
2019-05-28T22:25:10.511Z,13.70
2019-05-28T22:27:38.985Z,13.70
2019-05-28T22:30:07.701Z,13.70
2019-05-28T22:32:35.111Z,13.60
2019-05-28T22:35:02.285Z,13.60
2019-05-28T22:37:29.755Z,13.60
2019-05-28T22:39:57.316Z,13.50
2019-05-28T22:42:24.520Z,13.50
2019-05-28T22:44:51.488Z,13.50
2019-05-28T22:47:18.930Z,13.40
2019-05-28T22:49:45.931Z,13.40
2019-05-28T22:52:13.194Z,13.40
2019-05-28T22:54:40.547Z,13.30
2019-05-28T22:57:08.537Z,13.30
2019-05-28T22:59:36.456Z,13.30
2019-05-28T23:02:05.071Z,13.30
2019-05-28T23:04:32.688Z,13.30
2019-05-28T23:07:00.993Z,13.30
2019-05-28T23:09:30.229Z,13.30
2019-05-28T23:11:59.646Z,13.40
2019-05-28T23:14:27.694Z,13.40
2019-05-28T23:16:56.616Z,13.40
2019-05-28T23:19:24.541Z,13.40
2019-05-28T23:21:51.777Z,13.40
2019-05-28T23:24:19.014Z,13.40
2019-05-28T23:26:46.283Z,13.40
2019-05-28T23:29:13.249Z,13.40
2019-05-28T23:31:40.765Z,13.40
2019-05-28T23:34:08.514Z,13.50
2019-05-28T23:36:36.068Z,13.50
2019-05-28T23:39:06.906Z,13.50
2019-05-28T23:41:34.652Z,13.60
2019-05-28T23:44:02.737Z,13.50
2019-05-28T23:46:30.793Z,13.60
2019-05-28T23:48:58.472Z,13.60
2019-05-28T23:51:26.159Z,13.60
2019-05-28T23:53:53.613Z,13.60
2019-05-28T23:56:21.068Z,13.60
2019-05-28T23:58:48.759Z,13.60
